Hartford, Connecticut
Traffic Map
Current Weather Conditions
Hartford, Connecticut
Clear
Clear
62°
Feels Like: 62°
Wind Chill: 62° Ceiling: Unl
Heat Index: 62° Visibility: 10mi
Dew Point: 55° Wind: 0mph
Humidity: 78% Direction: ° ()
Pressure: 29.98in Gusts: 0mph
Raw Report DataKHFD 270453Z AUTO 00000KT 10SM CLR 17/13 A2998 RMK AO2 SLP153 T01670128 402670144
Traffic Incident Summary
Active as of:
Severity:
Category:
InformationThere was an issue retrieving the traffic information for this location. Please try a different location or try again shortly.
Advertisements
Track Severe Weather on mobile